Time;durP1;ratioP1;P1;durP2;ratioP2;P2;SDS_P1;SDS_P2;PMS_P1;PMS_P2;Temp;Humidity;BMP_temperature;BMP_pressure;BME280_temperature;BME280_humidity;BME280_pressure;Samples;Min_cycle;Max_cycle;Signal;HPM_P1;HPM_P2
2023/04/10 00:00:21;;;;;;;92.18;51.58;;;;;;;;;;5050544;28;20053;-76
2023/04/10 00:02:48;;;;;;;88.35;49.30;;;;;;;;;;5031599;28;20317;-76
2023/04/10 00:05:15;;;;;;;76.18;46.30;;;;;;;;;;5046958;28;20143;-80
2023/04/10 00:07:41;;;;;;;73.10;44.75;;;;;;;;;;5049160;28;20078;-78
2023/04/10 00:10:07;;;;;;;75.45;46.13;;;;;;;;;;5040619;28;20485;-77
2023/04/10 00:12:35;;;;;;;76.47;46.80;;;;;;;;;;5047174;28;20047;-78
2023/04/10 00:15:01;;;;;;;74.25;45.15;;;;;;;;;;5034686;28;20184;-78
2023/04/10 00:17:27;;;;;;;81.18;47.88;;;;;;;;;;5055520;28;20074;-77
2023/04/10 00:19:53;;;;;;;80.13;46.70;;;;;;;;;;5052968;28;20131;-76
2023/04/10 00:22:19;;;;;;;75.18;46.28;;;;;;;;;;5052246;28;20055;-77
2023/04/10 00:24:45;;;;;;;78.15;46.33;;;;;;;;;;5056651;28;20080;-77
2023/04/10 00:27:11;;;;;;;75.05;46.03;;;;;;;;;;5054233;28;20041;-78
2023/04/10 00:29:37;;;;;;;74.13;46.70;;;;;;;;;;5054180;28;20055;-77
2023/04/10 00:32:03;;;;;;;76.32;47.25;;;;;;;;;;5055897;28;20045;-78
2023/04/10 00:34:29;;;;;;;72.85;46.83;;;;;;;;;;5053942;28;20101;-77
2023/04/10 00:36:55;;;;;;;74.38;46.38;;;;;;;;;;5052821;28;20063;-78
2023/04/10 00:39:21;;;;;;;76.22;46.38;;;;;;;;;;5057037;28;20094;-77
2023/04/10 00:41:47;;;;;;;70.95;45.47;;;;;;;;;;5051647;28;20071;-78
2023/04/10 00:44:13;;;;;;;76.55;46.95;;;;;;;;;;5049464;28;20408;-78
2023/04/10 00:46:39;;;;;;;72.28;46.10;;;;;;;;;;5047448;28;20129;-77
2023/04/10 00:49:05;;;;;;;75.75;46.72;;;;;;;;;;5050878;28;20044;-77
2023/04/10 00:51:32;;;;;;;76.35;46.88;;;;;;;;;;5057939;28;20109;-77
2023/04/10 00:54:00;;;;;;;77.03;48.75;;;;;;;;;;5061801;28;20061;-76
2023/04/10 00:56:26;;;;;;;77.17;49.90;;;;;;;;;;5051462;28;20411;-79
2023/04/10 00:58:52;;;;;;;74.95;46.72;;;;;;;;;;5034087;28;20041;-78
2023/04/10 01:01:18;;;;;;;78.72;47.28;;;;;;;;;;5052485;28;20396;-77
2023/04/10 01:03:44;;;;;;;77.95;48.33;;;;;;;;;;5045872;28;20042;-76
2023/04/10 01:06:23;;;;;;;79.45;48.63;;;;;;;;;;5051270;28;20048;-78
2023/04/10 01:09:01;;;;;;;79.35;50.70;;;;;;;;;;5047223;28;20332;-77
2023/04/10 01:11:33;;;;;;;80.47;50.13;;;;;;;;;;5029924;28;20080;-77
2023/04/10 01:14:06;;;;;;;81.15;49.65;;;;;;;;;;5051495;28;20117;-77
2023/04/10 01:16:38;;;;;;;77.65;50.95;;;;;;;;;;5048402;28;20381;-76
2023/04/10 01:19:27;;;;;;;77.72;49.50;;;;;;;;;;5043045;28;20064;-78
2023/04/10 01:21:54;;;;;;;81.90;51.60;;;;;;;;;;5009813;28;20052;-78
2023/04/10 01:24:39;;;;;;;79.75;50.95;;;;;;;;;;5048883;28;20105;-77
2023/04/10 01:27:19;;;;;;;86.75;52.78;;;;;;;;;;5050253;28;20404;-78
2023/04/10 01:29:47;;;;;;;87.35;54.85;;;;;;;;;;5043120;28;20805;-78
2023/04/10 01:32:16;;;;;;;88.75;55.85;;;;;;;;;;5043064;28;20094;-76
2023/04/10 01:34:50;;;;;;;89.35;54.92;;;;;;;;;;5043955;28;20992;-77
2023/04/10 01:37:20;;;;;;;90.70;55.83;;;;;;;;;;5048745;28;20836;-79
2023/04/10 01:39:49;;;;;;;92.78;56.35;;;;;;;;;;5052871;28;20062;-77
2023/04/10 01:42:17;;;;;;;86.35;55.40;;;;;;;;;;5048386;28;20045;-77
2023/04/10 01:44:45;;;;;;;90.20;55.88;;;;;;;;;;5045063;28;20059;-78
2023/04/10 01:47:13;;;;;;;84.82;53.00;;;;;;;;;;5047370;28;20060;-77
2023/04/10 01:49:43;;;;;;;91.63;55.35;;;;;;;;;;5044531;28;20167;-76
2023/04/10 01:52:10;;;;;;;98.85;58.97;;;;;;;;;;5047185;28;20079;-78
2023/04/10 01:54:36;;;;;;;114.35;63.65;;;;;;;;;;5033099;28;20040;-77
2023/04/10 01:57:03;;;;;;;110.93;64.88;;;;;;;;;;5049087;28;20052;-78
2023/04/10 01:59:30;;;;;;;128.13;70.60;;;;;;;;;;5045899;28;20369;-78
2023/04/10 02:02:00;;;;;;;130.77;72.65;;;;;;;;;;5046261;28;20044;-76
2023/04/10 02:04:26;;;;;;;132.43;70.43;;;;;;;;;;5044985;28;20054;-77
2023/04/10 02:07:06;;;;;;;131.30;74.50;;;;;;;;;;5051012;28;20047;-76
2023/04/10 02:09:35;;;;;;;124.07;73.28;;;;;;;;;;5041492;28;20055;-76
2023/04/10 02:12:05;;;;;;;127.45;72.15;;;;;;;;;;5045876;28;20135;-75
2023/04/10 02:14:33;;;;;;;127.45;72.30;;;;;;;;;;5050974;28;20087;-77
2023/04/10 02:17:00;;;;;;;119.03;69.82;;;;;;;;;;5049300;28;20099;-76
2023/04/10 02:19:27;;;;;;;122.50;71.18;;;;;;;;;;5053101;28;20045;-76
2023/04/10 02:21:56;;;;;;;115.97;69.32;;;;;;;;;;5053488;28;20102;-78
2023/04/10 02:24:23;;;;;;;117.47;68.75;;;;;;;;;;5047218;28;20040;-77
2023/04/10 02:26:50;;;;;;;113.50;68.68;;;;;;;;;;5049537;28;20171;-76
2023/04/10 02:29:16;;;;;;;112.20;68.15;;;;;;;;;;5051869;28;20103;-78
2023/04/10 02:31:42;;;;;;;108.88;66.30;;;;;;;;;;5054615;28;20458;-77
2023/04/10 02:34:08;;;;;;;111.13;64.43;;;;;;;;;;5058485;28;20052;-77
2023/04/10 02:36:36;;;;;;;101.20;62.08;;;;;;;;;;5039154;28;20099;-76
2023/04/10 02:39:02;;;;;;;97.38;60.17;;;;;;;;;;5054886;28;20076;-76
2023/04/10 02:41:28;;;;;;;93.63;57.65;;;;;;;;;;5052579;28;20062;-77
2023/04/10 02:43:54;;;;;;;88.68;56.60;;;;;;;;;;5048785;28;20998;-77
2023/04/10 02:46:20;;;;;;;90.18;57.00;;;;;;;;;;5028467;28;20099;-77
2023/04/10 02:48:46;;;;;;;89.38;57.45;;;;;;;;;;5048925;28;20237;-79
2023/04/10 02:51:12;;;;;;;82.05;51.85;;;;;;;;;;5051617;28;20639;-79
2023/04/10 02:53:38;;;;;;;82.88;52.67;;;;;;;;;;5049716;28;20037;-78
2023/04/10 02:56:10;;;;;;;81.35;53.90;;;;;;;;;;5052921;28;20680;-77
2023/04/10 02:58:37;;;;;;;86.55;53.92;;;;;;;;;;5049699;28;20392;-78
2023/04/10 03:01:04;;;;;;;85.82;52.88;;;;;;;;;;5050444;28;20060;-79
2023/04/10 03:03:30;;;;;;;81.10;50.92;;;;;;;;;;5044610;28;20110;-79
2023/04/10 03:05:56;;;;;;;82.75;52.63;;;;;;;;;;5049868;28;20123;-79
2023/04/10 03:08:22;;;;;;;81.78;53.13;;;;;;;;;;5052624;28;20120;-78
2023/04/10 03:10:48;;;;;;;77.55;49.35;;;;;;;;;;5050798;28;20056;-78
2023/04/10 03:13:15;;;;;;;80.68;51.67;;;;;;;;;;5044278;28;20041;-78
2023/04/10 03:15:41;;;;;;;81.18;51.25;;;;;;;;;;5047625;28;20064;-78
2023/04/10 03:18:08;;;;;;;81.43;51.13;;;;;;;;;;5028345;28;20043;-78
2023/04/10 03:20:36;;;;;;;81.05;51.08;;;;;;;;;;5048998;28;20550;-78
2023/04/10 03:23:02;;;;;;;80.97;51.22;;;;;;;;;;5047029;28;20044;-78
2023/04/10 03:25:30;;;;;;;78.47;49.35;;;;;;;;;;5046607;28;20048;-76
2023/04/10 03:27:56;;;;;;;78.88;49.72;;;;;;;;;;5050673;28;20060;-77
2023/04/10 03:30:22;;;;;;;73.07;46.17;;;;;;;;;;5052226;28;20624;-77
2023/04/10 03:32:48;;;;;;;79.32;49.90;;;;;;;;;;5062085;28;20040;-77
2023/04/10 03:35:14;;;;;;;82.38;51.13;;;;;;;;;;5054617;28;20056;-78
2023/04/10 03:37:41;;;;;;;79.43;52.35;;;;;;;;;;5050804;28;20056;-77
2023/04/10 03:40:07;;;;;;;79.32;50.70;;;;;;;;;;5031746;28;20128;-77
2023/04/10 03:42:33;;;;;;;78.60;50.90;;;;;;;;;;5052302;28;20693;-79
2023/04/10 03:45:03;;;;;;;83.05;53.03;;;;;;;;;;5046731;28;20492;-78
2023/04/10 03:47:29;;;;;;;77.60;49.28;;;;;;;;;;5048574;28;20084;-78
2023/04/10 03:49:55;;;;;;;83.10;51.78;;;;;;;;;;5050150;28;20136;-79
2023/04/10 03:52:21;;;;;;;86.43;54.70;;;;;;;;;;5050045;28;20033;-77
2023/04/10 03:54:47;;;;;;;83.28;53.38;;;;;;;;;;5048760;28;20037;-77
2023/04/10 03:57:13;;;;;;;83.95;53.70;;;;;;;;;;5043348;28;20481;-80
2023/04/10 03:59:39;;;;;;;82.28;52.17;;;;;;;;;;5050649;28;20580;-79
2023/04/10 04:02:06;;;;;;;84.88;54.97;;;;;;;;;;5044557;28;21299;-77
2023/04/10 04:04:32;;;;;;;86.25;54.13;;;;;;;;;;5046991;28;20168;-78
2023/04/10 04:06:58;;;;;;;82.78;53.92;;;;;;;;;;5046026;28;20056;-77
2023/04/10 04:09:24;;;;;;;87.45;54.33;;;;;;;;;;5048773;28;20055;-77
2023/04/10 04:11:50;;;;;;;87.28;56.00;;;;;;;;;;5050127;28;20049;-78
2023/04/10 04:14:16;;;;;;;86.00;54.35;;;;;;;;;;5052709;28;20404;-77
2023/04/10 04:16:42;;;;;;;86.38;54.58;;;;;;;;;;5055565;28;20253;-77
2023/04/10 04:19:08;;;;;;;83.60;54.58;;;;;;;;;;5052174;28;20823;-79
2023/04/10 04:21:34;;;;;;;87.20;56.28;;;;;;;;;;5055594;28;20630;-77
2023/04/10 04:24:00;;;;;;;80.93;53.03;;;;;;;;;;5055723;28;20625;-78
2023/04/10 04:26:26;;;;;;;83.75;55.47;;;;;;;;;;5057910;28;20044;-78
2023/04/10 04:28:52;;;;;;;85.88;56.03;;;;;;;;;;5052675;28;20033;-77
2023/04/10 04:31:18;;;;;;;86.57;54.45;;;;;;;;;;5054315;28;20151;-77
2023/04/10 04:33:44;;;;;;;87.80;55.00;;;;;;;;;;5036434;28;20067;-78
2023/04/10 04:36:10;;;;;;;85.38;54.88;;;;;;;;;;5054294;28;20828;-79
2023/04/10 04:38:36;;;;;;;85.50;56.17;;;;;;;;;;5050840;28;20041;-80
2023/04/10 04:41:02;;;;;;;86.93;57.03;;;;;;;;;;5053469;28;20041;-79
2023/04/10 04:43:28;;;;;;;90.25;56.88;;;;;;;;;;5044533;28;20525;-78
2023/04/10 04:45:54;;;;;;;86.13;55.67;;;;;;;;;;5051665;28;20052;-78
2023/04/10 04:48:20;;;;;;;82.90;54.60;;;;;;;;;;5053531;28;20127;-79
2023/04/10 04:50:46;;;;;;;87.63;55.20;;;;;;;;;;5046402;28;20074;-78
2023/04/10 04:53:13;;;;;;;92.00;54.38;;;;;;;;;;5046535;28;20064;-77
2023/04/10 04:55:39;;;;;;;88.68;55.60;;;;;;;;;;5050102;28;20048;-80
2023/04/10 04:58:05;;;;;;;87.20;55.42;;;;;;;;;;5048566;28;20045;-78
2023/04/10 05:00:31;;;;;;;86.57;55.75;;;;;;;;;;5032306;28;20172;-77
2023/04/10 05:02:57;;;;;;;91.70;57.63;;;;;;;;;;5043081;28;20056;-78
2023/04/10 05:05:23;;;;;;;89.22;56.53;;;;;;;;;;5050839;28;20075;-77
2023/04/10 05:07:49;;;;;;;87.43;55.00;;;;;;;;;;5047033;28;20040;-77
2023/04/10 05:10:15;;;;;;;86.80;54.30;;;;;;;;;;5048058;28;20187;-76
2023/04/10 05:12:42;;;;;;;90.03;56.75;;;;;;;;;;5044517;28;20102;-79
2023/04/10 05:15:08;;;;;;;86.93;55.08;;;;;;;;;;5033360;28;20059;-77
2023/04/10 05:17:34;;;;;;;89.72;56.17;;;;;;;;;;5047012;28;20139;-78
2023/04/10 05:20:00;;;;;;;87.75;53.47;;;;;;;;;;5031868;28;20048;-79
2023/04/10 05:22:27;;;;;;;87.72;54.50;;;;;;;;;;5045411;28;21515;-78
2023/04/10 05:24:54;;;;;;;87.50;55.83;;;;;;;;;;5048480;28;20051;-78
2023/04/10 05:27:20;;;;;;;90.28;56.13;;;;;;;;;;5050253;28;20048;-79
2023/04/10 05:29:46;;;;;;;88.53;56.58;;;;;;;;;;5046966;28;20610;-77
2023/04/10 05:32:12;;;;;;;86.40;56.80;;;;;;;;;;5046676;28;20622;-79
2023/04/10 05:34:38;;;;;;;90.18;57.13;;;;;;;;;;5043081;28;20226;-78
2023/04/10 05:37:04;;;;;;;85.30;55.58;;;;;;;;;;5045608;28;20044;-78
2023/04/10 05:39:30;;;;;;;83.22;54.22;;;;;;;;;;5048507;28;20514;-77
2023/04/10 05:41:57;;;;;;;84.93;53.88;;;;;;;;;;5049894;28;20036;-77
2023/04/10 05:44:23;;;;;;;87.72;56.10;;;;;;;;;;5046003;28;21074;-78
2023/04/10 05:46:49;;;;;;;83.70;53.72;;;;;;;;;;5046757;28;20068;-78
2023/04/10 05:49:15;;;;;;;88.57;56.35;;;;;;;;;;5049668;28;20045;-78
2023/04/10 05:51:41;;;;;;;86.63;54.67;;;;;;;;;;5065413;28;20101;-80
2023/04/10 05:54:07;;;;;;;84.68;54.28;;;;;;;;;;5049340;28;20098;-78
2023/04/10 05:56:33;;;;;;;86.00;54.00;;;;;;;;;;5046064;28;20055;-77
2023/04/10 05:58:59;;;;;;;84.13;52.95;;;;;;;;;;5049935;28;20066;-79
2023/04/10 06:01:25;;;;;;;84.93;54.03;;;;;;;;;;5045186;28;20496;-79
2023/04/10 06:03:51;;;;;;;88.80;55.55;;;;;;;;;;5052636;28;20080;-79
2023/04/10 06:06:18;;;;;;;90.03;54.47;;;;;;;;;;5050383;28;20071;-77
2023/04/10 06:08:44;;;;;;;83.65;52.33;;;;;;;;;;5036719;28;20052;-79
2023/04/10 06:11:10;;;;;;;88.93;54.80;;;;;;;;;;5049175;28;20058;-79
2023/04/10 06:13:36;;;;;;;84.10;50.55;;;;;;;;;;5046919;28;20629;-79
2023/04/10 06:16:02;;;;;;;85.28;55.75;;;;;;;;;;5064724;28;20060;-78
2023/04/10 06:18:28;;;;;;;86.13;53.60;;;;;;;;;;5056338;28;20631;-78
2023/04/10 06:20:56;;;;;;;80.28;48.92;;;;;;;;;;5054620;28;20044;-78
2023/04/10 06:23:22;;;;;;;85.60;54.40;;;;;;;;;;5057389;28;20106;-77
2023/04/10 06:25:48;;;;;;;81.22;51.65;;;;;;;;;;5055054;28;20454;-78
2023/04/10 06:28:14;;;;;;;86.68;54.20;;;;;;;;;;5055898;28;20140;-76
2023/04/10 06:30:40;;;;;;;83.63;52.95;;;;;;;;;;5056145;28;20045;-78
2023/04/10 06:33:06;;;;;;;89.25;54.80;;;;;;;;;;5038157;28;20036;-77
2023/04/10 06:35:33;;;;;;;85.68;54.22;;;;;;;;;;5054322;28;20098;-77
2023/04/10 06:37:59;;;;;;;80.90;52.08;;;;;;;;;;5059481;28;20044;-78
2023/04/10 06:40:25;;;;;;;83.57;51.80;;;;;;;;;;5051517;28;20055;-78
2023/04/10 06:42:51;;;;;;;80.63;51.70;;;;;;;;;;5052657;28;20052;-77
2023/04/10 06:45:17;;;;;;;87.57;56.20;;;;;;;;;;5050339;28;20103;-79
2023/04/10 06:47:43;;;;;;;93.00;58.72;;;;;;;;;;5047103;28;20052;-78
2023/04/10 06:50:09;;;;;;;86.38;56.58;;;;;;;;;;5048814;28;20396;-79
2023/04/10 06:52:35;;;;;;;85.85;55.47;;;;;;;;;;5052509;28;20052;-79
2023/04/10 06:55:01;;;;;;;82.22;52.08;;;;;;;;;;5051025;28;20401;-79
2023/04/10 06:57:27;;;;;;;86.15;52.05;;;;;;;;;;5049110;28;20077;-76
2023/04/10 06:59:53;;;;;;;83.45;53.22;;;;;;;;;;5045093;28;20064;-77
2023/04/10 07:02:20;;;;;;;75.43;49.05;;;;;;;;;;5046612;28;20071;-76
2023/04/10 07:04:46;;;;;;;75.60;47.40;;;;;;;;;;5050591;28;20106;-77
2023/04/10 07:07:12;;;;;;;72.10;45.00;;;;;;;;;;5051901;28;20046;-77
2023/04/10 07:09:41;;;;;;;78.50;46.15;;;;;;;;;;5049578;28;20411;-78
2023/04/10 07:12:07;;;;;;;73.05;46.17;;;;;;;;;;5050089;28;20056;-77
2023/04/10 07:14:34;;;;;;;75.50;43.85;;;;;;;;;;5051577;28;20040;-78
2023/04/10 07:17:00;;;;;;;70.78;44.00;;;;;;;;;;5050183;28;20059;-79
2023/04/10 07:19:26;;;;;;;71.65;41.80;;;;;;;;;;5051229;28;20291;-78
2023/04/10 07:21:52;;;;;;;66.80;45.33;;;;;;;;;;5051367;28;20056;-79
2023/04/10 07:24:19;;;;;;;72.13;43.72;;;;;;;;;;5046482;28;20048;-77
2023/04/10 07:26:45;;;;;;;69.07;43.67;;;;;;;;;;5049162;28;20602;-77
2023/04/10 07:29:11;;;;;;;67.22;41.97;;;;;;;;;;5046763;28;20068;-77
2023/04/10 07:31:37;;;;;;;65.82;40.05;;;;;;;;;;5049822;28;20107;-77
2023/04/10 07:34:03;;;;;;;66.65;41.20;;;;;;;;;;5046917;28;20041;-76
2023/04/10 07:36:30;;;;;;;64.22;41.53;;;;;;;;;;5034130;28;20048;-78
2023/04/10 07:38:56;;;;;;;64.28;39.63;;;;;;;;;;5031947;28;20080;-78
2023/04/10 07:41:22;;;;;;;62.45;39.10;;;;;;;;;;5052091;28;20045;-77
2023/04/10 07:43:49;;;;;;;58.58;39.22;;;;;;;;;;5048043;28;20052;-79
2023/04/10 07:46:16;;;;;;;58.78;37.28;;;;;;;;;;5048180;28;20045;-78
2023/04/10 07:48:43;;;;;;;56.83;37.40;;;;;;;;;;5045390;28;20140;-78
2023/04/10 07:51:09;;;;;;;55.85;36.50;;;;;;;;;;5052177;28;20500;-79
2023/04/10 07:53:38;;;;;;;56.25;35.85;;;;;;;;;;5050501;28;20045;-77
2023/04/10 07:56:05;;;;;;;57.03;33.80;;;;;;;;;;5035066;28;20129;-79
2023/04/10 07:58:31;;;;;;;52.05;32.35;;;;;;;;;;5048831;28;20048;-79
2023/04/10 08:00:58;;;;;;;54.22;34.65;;;;;;;;;;5046662;28;21573;-76
2023/04/10 08:03:24;;;;;;;50.10;31.52;;;;;;;;;;5033868;28;20585;-80
2023/04/10 08:05:50;;;;;;;54.03;34.28;;;;;;;;;;5048552;28;20645;-77
2023/04/10 08:08:16;;;;;;;53.65;33.83;;;;;;;;;;5048623;28;20052;-77
2023/04/10 08:10:42;;;;;;;49.28;31.33;;;;;;;;;;5045441;28;20040;-79
2023/04/10 08:13:08;;;;;;;49.55;31.20;;;;;;;;;;5052222;28;20040;-80
2023/04/10 08:15:34;;;;;;;52.47;32.63;;;;;;;;;;5048469;28;20877;-77
2023/04/10 08:18:00;;;;;;;47.28;31.42;;;;;;;;;;5051682;28;20048;-77
2023/04/10 08:20:27;;;;;;;49.40;30.48;;;;;;;;;;5048876;28;20059;-82
2023/04/10 08:22:53;;;;;;;43.85;28.73;;;;;;;;;;5051865;28;20059;-80
2023/04/10 08:25:19;;;;;;;45.40;28.13;;;;;;;;;;5036270;28;20044;-79
2023/04/10 08:27:45;;;;;;;42.35;28.42;;;;;;;;;;5048522;28;20129;-82
2023/04/10 08:30:11;;;;;;;41.95;27.27;;;;;;;;;;5035297;28;20079;-81
2023/04/10 08:32:38;;;;;;;42.85;27.58;;;;;;;;;;5049884;28;20419;-81
2023/04/10 08:35:04;;;;;;;37.35;23.23;;;;;;;;;;5048244;28;20048;-82
2023/04/10 08:37:30;;;;;;;38.60;26.10;;;;;;;;;;5033854;28;20044;-81
2023/04/10 08:39:57;;;;;;;42.47;27.35;;;;;;;;;;5049171;28;20051;-81
2023/04/10 08:42:24;;;;;;;44.80;27.25;;;;;;;;;;5035758;28;20040;-80
2023/04/10 08:44:51;;;;;;;34.67;23.17;;;;;;;;;;5042599;28;20091;-81
2023/04/10 08:47:20;;;;;;;40.60;25.20;;;;;;;;;;5042415;28;20543;-80
2023/04/10 08:49:54;;;;;;;39.00;23.95;;;;;;;;;;5054685;28;20123;-81
2023/04/10 08:52:22;;;;;;;36.15;23.10;;;;;;;;;;5036812;28;20424;-82
2023/04/10 08:54:50;;;;;;;36.47;24.08;;;;;;;;;;5051872;28;20055;-83
2023/04/10 08:57:19;;;;;;;35.95;24.15;;;;;;;;;;5069698;28;20044;-81
2023/04/10 08:59:45;;;;;;;37.53;24.15;;;;;;;;;;5061340;28;20052;-81
2023/04/10 09:02:11;;;;;;;37.58;24.33;;;;;;;;;;5047694;28;20045;-81
2023/04/10 09:04:37;;;;;;;36.30;23.90;;;;;;;;;;5045149;28;20651;-82
2023/04/10 09:07:03;;;;;;;35.72;23.83;;;;;;;;;;5048531;28;20032;-81
2023/04/10 09:09:32;;;;;;;33.28;23.30;;;;;;;;;;5051713;28;20044;-82
2023/04/10 09:11:59;;;;;;;;;;;;;;;;;;5050829;28;20655;-82
2023/04/10 09:14:30;;;;;;;36.58;23.58;;;;;;;;;;5051475;28;19928;-82
2023/04/10 09:17:13;;;;;;;36.63;24.73;;;;;;;;;;5047908;28;20037;-82
2023/04/10 09:19:40;;;;;;;34.35;22.73;;;;;;;;;;5048233;28;20716;-81
2023/04/10 09:22:06;;;;;;;33.75;21.52;;;;;;;;;;5033363;28;20058;-82
2023/04/10 09:24:36;;;;;;;33.85;23.27;;;;;;;;;;5052782;28;20044;-82
2023/04/10 09:27:02;;;;;;;33.28;23.20;;;;;;;;;;5048524;28;20112;-81
2023/04/10 09:29:38;;;;;;;31.75;21.30;;;;;;;;;;5051531;28;20509;-81
2023/04/10 09:32:04;;;;;;;34.33;23.17;;;;;;;;;;5049788;28;20431;-81
2023/04/10 09:34:30;;;;;;;34.17;20.75;;;;;;;;;;5049030;28;20448;-82
2023/04/10 09:36:57;;;;;;;32.03;22.13;;;;;;;;;;5047869;28;20497;-82
2023/04/10 09:39:41;;;;;;;31.20;21.45;;;;;;;;;;5053756;28;20047;-81
2023/04/10 09:42:08;;;;;;;29.95;19.85;;;;;;;;;;5051082;28;20052;-82
2023/04/10 09:44:36;;;;;;;32.55;20.92;;;;;;;;;;5052057;28;20871;-81
2023/04/10 09:47:14;;;;;;;32.97;21.52;;;;;;;;;;5053148;28;20068;-81
2023/04/10 09:49:40;;;;;;;;;;;;;;;;;;5052401;28;20586;-81
2023/04/10 09:52:27;;;;;;;32.95;20.73;;;;;;;;;;5050423;28;19975;-82
2023/04/10 09:54:54;;;;;;;32.17;20.98;;;;;;;;;;5052354;28;20059;-77
2023/04/10 09:57:21;;;;;;;30.90;20.98;;;;;;;;;;5036558;28;20131;-77
2023/04/10 09:59:54;;;;;;;27.02;19.30;;;;;;;;;;5048133;28;20040;-78
2023/04/10 10:02:21;;;;;;;29.15;20.20;;;;;;;;;;5035450;28;20532;-77
2023/04/10 10:04:48;;;;;;;31.75;21.70;;;;;;;;;;5056645;28;20165;-77
2023/04/10 10:07:15;;;;;;;29.13;20.15;;;;;;;;;;5055170;28;20040;-76
2023/04/10 10:09:42;;;;;;;29.80;20.30;;;;;;;;;;5058959;28;20056;-78
2023/04/10 10:12:09;;;;;;;29.88;19.13;;;;;;;;;;5059170;28;20039;-77
2023/04/10 10:14:37;;;;;;;24.80;17.80;;;;;;;;;;5038765;28;20054;-78
2023/04/10 10:17:09;;;;;;;29.75;18.98;;;;;;;;;;5058284;28;20523;-78
2023/04/10 10:19:38;;;;;;;26.42;19.95;;;;;;;;;;5054100;28;20605;-78
2023/04/10 10:22:04;;;;;;;29.17;19.48;;;;;;;;;;5054450;28;20052;-78
2023/04/10 10:24:31;;;;;;;26.23;18.83;;;;;;;;;;5043779;28;20036;-78
2023/04/10 10:26:58;;;;;;;27.63;18.92;;;;;;;;;;5054457;28;20807;-78
2023/04/10 10:29:24;;;;;;;21.08;15.82;;;;;;;;;;5058158;28;20072;-79
2023/04/10 10:31:52;;;;;;;23.45;16.10;;;;;;;;;;5057721;28;20136;-78
2023/04/10 10:34:19;;;;;;;25.95;14.95;;;;;;;;;;5057439;28;20182;-78
2023/04/10 10:36:45;;;;;;;19.95;13.88;;;;;;;;;;5054512;28;20036;-77
2023/04/10 10:39:31;;;;;;;21.27;13.25;;;;;;;;;;5058929;28;20037;-77
2023/04/10 10:42:01;;;;;;;15.00;11.18;;;;;;;;;;5055770;28;20052;-78
2023/04/10 10:44:40;;;;;;;15.57;11.30;;;;;;;;;;5041057;28;20047;-78
2023/04/10 10:47:29;;;;;;;14.85;10.82;;;;;;;;;;5052386;28;20044;-78
2023/04/10 10:49:55;;;;;;;16.20;11.48;;;;;;;;;;5057666;28;20051;-77
2023/04/10 10:52:37;;;;;;;12.90;10.13;;;;;;;;;;5056349;28;20049;-77
2023/04/10 10:55:26;;;;;;;13.18;10.05;;;;;;;;;;5060621;28;20041;-77
2023/04/10 10:57:53;;;;;;;12.55;9.73;;;;;;;;;;5039895;28;20649;-77
2023/04/10 11:00:19;;;;;;;13.30;9.43;;;;;;;;;;5056782;28;20072;-78
2023/04/10 11:03:05;;;;;;;10.68;8.57;;;;;;;;;;5053976;28;20536;-77
2023/04/10 11:05:51;;;;;;;13.57;9.00;;;;;;;;;;5058253;28;20131;-78
2023/04/10 11:08:17;;;;;;;12.63;9.43;;;;;;;;;;5055885;28;20052;-78
2023/04/10 11:11:02;;;;;;;11.45;8.88;;;;;;;;;;5055033;28;20163;-78
2023/04/10 11:13:28;;;;;;;11.55;8.65;;;;;;;;;;5059892;28;20060;-78
2023/04/10 11:15:56;;;;;;;11.32;8.30;;;;;;;;;;5056758;28;20043;-78
2023/04/10 11:18:41;;;;;;;12.10;9.07;;;;;;;;;;5042263;28;20139;-77
2023/04/10 11:21:10;;;;;;;12.05;8.40;;;;;;;;;;5058754;28;20048;-78
2023/04/10 11:24:00;;;;;;;10.65;8.18;;;;;;;;;;5055286;28;20094;-77
2023/04/10 11:26:39;;;;;;;10.23;8.32;;;;;;;;;;5048560;28;20064;-79
2023/04/10 11:29:04;;;;;;;;;;;;;;;;;;5040934;28;20036;-78
2023/04/10 11:31:31;;;;;;;11.70;8.82;;;;;;;;;;5056259;28;20006;-78
2023/04/10 11:33:57;;;;;;;12.43;7.90;;;;;;;;;;5041095;28;20033;-78
2023/04/10 11:36:23;;;;;;;11.55;8.35;;;;;;;;;;5051301;28;20125;-76
2023/04/10 11:38:56;;;;;;;10.50;8.18;;;;;;;;;;5067876;28;20644;-78
2023/04/10 11:41:27;;;;;;;9.05;6.90;;;;;;;;;;5056042;28;20154;-77
2023/04/10 11:43:53;;;;;;;10.25;7.82;;;;;;;;;;5054627;28;20064;-78
2023/04/10 11:46:19;;;;;;;10.90;7.25;;;;;;;;;;5056344;28;20059;-77
2023/04/10 11:48:45;;;;;;;9.73;7.22;;;;;;;;;;5055581;28;20139;-76
2023/04/10 11:51:13;;;;;;;9.60;6.78;;;;;;;;;;5057360;28;20163;-77
2023/04/10 11:53:39;;;;;;;9.95;7.05;;;;;;;;;;5058442;28;20052;-78
2023/04/10 11:56:06;;;;;;;9.80;7.30;;;;;;;;;;5040149;28;20047;-78
2023/04/10 11:58:32;;;;;;;9.18;6.60;;;;;;;;;;5059410;28;20044;-78
2023/04/10 12:01:02;;;;;;;9.13;6.50;;;;;;;;;;5054388;28;20770;-81
2023/04/10 12:03:31;;;;;;;8.38;6.60;;;;;;;;;;5039205;28;20036;-78
2023/04/10 12:05:57;;;;;;;9.60;6.25;;;;;;;;;;5039800;28;20056;-78
2023/04/10 12:08:30;;;;;;;7.95;5.80;;;;;;;;;;5035415;28;20071;-78
2023/04/10 12:10:56;;;;;;;7.55;5.60;;;;;;;;;;5054830;28;20051;-78
2023/04/10 12:13:26;;;;;;;7.75;5.85;;;;;;;;;;5054992;28;20041;-78
2023/04/10 12:15:53;;;;;;;5.95;5.00;;;;;;;;;;5058666;28;20059;-77
2023/04/10 12:18:19;;;;;;;6.88;5.45;;;;;;;;;;5056448;28;20488;-78
2023/04/10 12:20:45;;;;;;;5.40;4.65;;;;;;;;;;5052750;28;20045;-78
2023/04/10 12:23:12;;;;;;;9.07;4.68;;;;;;;;;;5058581;28;20181;-78
2023/04/10 12:25:38;;;;;;;8.52;5.05;;;;;;;;;;5054986;28;20044;-79
2023/04/10 12:28:05;;;;;;;5.70;4.63;;;;;;;;;;5057391;28;20051;-78
2023/04/10 12:30:31;;;;;;;7.35;4.85;;;;;;;;;;5055705;28;20044;-78
2023/04/10 12:33:02;;;;;;;7.97;4.60;;;;;;;;;;5059622;28;20585;-78
2023/04/10 12:35:38;;;;;;;6.50;4.60;;;;;;;;;;5056699;28;20049;-79
2023/04/10 12:38:04;;;;;;;10.63;4.63;;;;;;;;;;5057628;28;20114;-78
2023/04/10 12:40:30;;;;;;;9.52;4.25;;;;;;;;;;5055665;28;20052;-78
2023/04/10 12:42:56;;;;;;;7.38;4.10;;;;;;;;;;5054930;28;20080;-78
2023/04/10 12:45:41;;;;;;;5.28;4.47;;;;;;;;;;5058181;28;20072;-78
2023/04/10 12:48:07;;;;;;;6.70;4.90;;;;;;;;;;5056753;28;20040;-79
2023/04/10 12:50:46;;;;;;;5.90;4.47;;;;;;;;;;5056181;28;20078;-78
2023/04/10 12:53:12;;;;;;;5.75;4.10;;;;;;;;;;5050449;28;20102;-77
2023/04/10 12:55:39;;;;;;;5.63;4.43;;;;;;;;;;5052606;28;20045;-79
2023/04/10 12:58:21;;;;;;;5.90;4.43;;;;;;;;;;5040537;28;20040;-79
2023/04/10 13:00:47;;;;;;;5.82;4.63;;;;;;;;;;5052683;28;20598;-77
2023/04/10 13:03:14;;;;;;;10.27;4.35;;;;;;;;;;5051497;28;20915;-76
2023/04/10 13:05:40;;;;;;;9.55;4.60;;;;;;;;;;5053658;28;20036;-76
2023/04/10 13:08:06;;;;;;;6.13;4.45;;;;;;;;;;5048884;28;20040;-79
2023/04/10 13:10:32;;;;;;;7.55;4.45;;;;;;;;;;5053622;28;20044;-77
2023/04/10 13:12:59;;;;;;;7.85;4.30;;;;;;;;;;5058502;28;20087;-77
2023/04/10 13:15:26;;;;;;;7.32;4.53;;;;;;;;;;5055654;28;20508;-78
2023/04/10 13:17:52;;;;;;;6.25;4.38;;;;;;;;;;5053508;28;20056;-79
2023/04/10 13:20:18;;;;;;;5.65;4.32;;;;;;;;;;5054125;28;20249;-78
2023/04/10 13:22:44;;;;;;;18.25;4.63;;;;;;;;;;5039707;28;20771;-79
2023/04/10 13:25:10;;;;;;;6.78;4.10;;;;;;;;;;5038324;28;20045;-78
2023/04/10 13:27:36;;;;;;;9.55;4.50;;;;;;;;;;5054501;28;20105;-79
2023/04/10 13:30:02;;;;;;;11.48;4.28;;;;;;;;;;5052927;28;20048;-78
2023/04/10 13:32:28;;;;;;;9.77;4.32;;;;;;;;;;5056049;28;20679;-79
2023/04/10 13:34:55;;;;;;;5.78;4.20;;;;;;;;;;5051785;28;20059;-78
2023/04/10 13:37:22;;;;;;;10.60;4.77;;;;;;;;;;5056576;28;20087;-78
2023/04/10 13:39:48;;;;;;;7.60;4.95;;;;;;;;;;5053030;28;20535;-77
2023/04/10 13:42:14;;;;;;;9.73;4.53;;;;;;;;;;5039731;28;20127;-79
2023/04/10 13:44:40;;;;;;;9.95;4.40;;;;;;;;;;5054849;28;20046;-78
2023/04/10 13:47:06;;;;;;;7.97;4.80;;;;;;;;;;5056954;28;20139;-78
2023/04/10 13:49:32;;;;;;;6.25;4.72;;;;;;;;;;5055443;28;20154;-79
2023/04/10 13:51:58;;;;;;;6.63;5.10;;;;;;;;;;5056847;28;20054;-77
2023/04/10 13:54:24;;;;;;;5.60;4.50;;;;;;;;;;5055589;28;20418;-78
2023/04/10 13:56:50;;;;;;;6.32;5.10;;;;;;;;;;5051870;28;20044;-79
2023/04/10 13:59:16;;;;;;;6.45;4.90;;;;;;;;;;5039117;28;20098;-78
2023/04/10 14:01:42;;;;;;;7.15;4.93;;;;;;;;;;5052262;28;20078;-79
2023/04/10 14:04:08;;;;;;;6.47;4.60;;;;;;;;;;5049303;28;20052;-78
2023/04/10 14:06:34;;;;;;;5.28;4.32;;;;;;;;;;5039277;28;20033;-77
2023/04/10 14:09:00;;;;;;;8.23;4.80;;;;;;;;;;5052343;28;20511;-77
2023/04/10 14:11:26;;;;;;;7.18;5.10;;;;;;;;;;5044429;28;20040;-78
2023/04/10 14:13:52;;;;;;;5.93;4.70;;;;;;;;;;5050281;28;20126;-77
2023/04/10 14:16:19;;;;;;;7.25;5.15;;;;;;;;;;5039273;28;20044;-78
2023/04/10 14:18:44;;;;;;;5.65;4.05;;;;;;;;;;5053370;28;20048;-78
2023/04/10 14:21:10;;;;;;;6.75;4.90;;;;;;;;;;5043005;28;20331;-77
2023/04/10 14:23:36;;;;;;;5.18;4.43;;;;;;;;;;5049694;28;20100;-78
2023/04/10 14:26:05;;;;;;;5.40;4.57;;;;;;;;;;5057675;28;20131;-79